createdAt,value
2018-11-05T00:02:29.402Z,12.41
2018-11-05T00:05:33.110Z,12.41
2018-11-05T00:08:36.581Z,12.42
2018-11-05T00:11:40.064Z,12.43
2018-11-05T00:14:43.560Z,12.47
2018-11-05T00:17:47.074Z,12.47
2018-11-05T00:20:50.554Z,12.45
2018-11-05T00:23:54.128Z,12.50
2018-11-05T00:26:57.585Z,12.54
2018-11-05T00:30:01.063Z,12.51
2018-11-05T00:33:04.645Z,12.53
2018-11-05T00:36:08.236Z,12.51
2018-11-05T00:39:12.743Z,12.48
2018-11-05T00:42:16.228Z,12.46
2018-11-05T00:45:19.736Z,12.45
2018-11-05T00:48:24.263Z,12.45
2018-11-05T00:51:27.803Z,12.49
2018-11-05T00:54:31.308Z,12.49
2018-11-05T00:57:34.917Z,12.51
2018-11-05T01:00:38.483Z,12.49
2018-11-05T01:03:46.471Z,12.47
2018-11-05T01:06:50.146Z,12.49
2018-11-05T01:09:53.786Z,12.52
2018-11-05T01:12:57.446Z,12.50
2018-11-05T01:16:01.012Z,12.45
2018-11-05T01:19:04.867Z,12.47
2018-11-05T01:22:08.405Z,12.48
2018-11-05T01:25:12.055Z,12.48
2018-11-05T01:28:15.571Z,12.52
2018-11-05T01:31:19.185Z,12.49
2018-11-05T01:34:22.794Z,12.48
2018-11-05T01:37:26.323Z,12.50
2018-11-05T01:40:29.905Z,12.50
2018-11-05T01:43:33.368Z,12.50
2018-11-05T01:46:36.910Z,12.48
2018-11-05T01:49:40.512Z,12.49
2018-11-05T01:52:44.402Z,12.45
2018-11-05T01:55:48.027Z,12.44
2018-11-05T01:58:51.765Z,12.48
2018-11-05T02:01:56.339Z,12.46
2018-11-05T02:04:59.852Z,12.48
2018-11-05T02:08:03.319Z,12.50
2018-11-05T02:11:06.880Z,12.48
2018-11-05T02:14:10.500Z,12.49
2018-11-05T02:17:14.034Z,12.47
2018-11-05T02:20:17.908Z,12.44
2018-11-05T02:23:21.445Z,12.48
2018-11-05T02:26:25.153Z,12.45
2018-11-05T02:29:28.708Z,12.44
2018-11-05T02:32:32.228Z,12.39
2018-11-05T02:35:35.812Z,12.38
2018-11-05T02:38:39.433Z,12.41
2018-11-05T02:41:42.935Z,12.36
2018-11-05T02:44:46.713Z,12.36
2018-11-05T02:47:50.242Z,12.32
2018-11-05T02:50:53.710Z,12.32
2018-11-05T02:53:57.367Z,12.31
2018-11-05T02:57:00.807Z,12.24
2018-11-05T03:00:06.054Z,12.20
2018-11-05T03:03:09.654Z,12.18
2018-11-05T03:06:13.070Z,12.17
2018-11-05T03:09:16.609Z,12.15
2018-11-05T03:12:20.105Z,12.13
2018-11-05T03:15:24.641Z,12.14
2018-11-05T03:18:28.220Z,12.13
2018-11-05T03:21:31.722Z,12.09
2018-11-05T03:24:35.264Z,12.06
2018-11-05T03:27:39.148Z,12.06
2018-11-05T03:30:42.676Z,12.06
2018-11-05T03:33:46.178Z,12.06
2018-11-05T03:36:49.674Z,11.98
2018-11-05T03:39:53.185Z,11.92
2018-11-05T03:42:56.674Z,11.86
2018-11-05T03:46:00.177Z,11.81
2018-11-05T03:49:03.799Z,11.79
2018-11-05T03:52:07.510Z,11.80
2018-11-05T03:55:10.969Z,11.76
2018-11-05T03:58:14.497Z,11.68
2018-11-05T04:01:19.006Z,11.67
2018-11-05T04:04:22.488Z,11.66
2018-11-05T04:07:26.245Z,11.64
2018-11-05T04:10:29.859Z,11.62
2018-11-05T04:13:33.463Z,11.61
2018-11-05T04:16:37.056Z,11.58
2018-11-05T04:19:40.554Z,11.51
2018-11-05T04:22:44.861Z,11.49
2018-11-05T04:25:48.590Z,11.48
2018-11-05T04:28:52.095Z,11.46
2018-11-05T04:31:56.632Z,11.40
2018-11-05T04:35:00.239Z,11.38
2018-11-05T04:38:03.837Z,11.36
2018-11-05T04:41:07.448Z,11.33
2018-11-05T04:44:11.106Z,11.32
2018-11-05T04:47:14.760Z,11.31
2018-11-05T04:50:18.227Z,11.29
2018-11-05T04:53:22.849Z,11.26
2018-11-05T04:56:26.550Z,11.23
2018-11-05T04:59:30.210Z,11.23
2018-11-05T05:02:33.960Z,11.18
2018-11-05T05:05:37.523Z,11.15
2018-11-05T05:08:42.489Z,11.04
2018-11-05T05:11:46.071Z,11.02
2018-11-05T05:14:49.630Z,11.01
2018-11-05T05:17:53.137Z,10.96
2018-11-05T05:20:56.669Z,10.99
2018-11-05T05:24:00.274Z,10.99
2018-11-05T05:27:03.874Z,10.98
2018-11-05T05:30:10.869Z,10.93
2018-11-05T05:33:14.501Z,10.94
2018-11-05T05:36:18.016Z,10.88
2018-11-05T05:39:21.678Z,10.85
2018-11-05T05:42:25.289Z,10.86
2018-11-05T05:45:28.764Z,10.86
2018-11-05T05:48:32.298Z,10.87
2018-11-05T05:51:35.761Z,10.86
2018-11-05T05:54:39.448Z,10.86
2018-11-05T05:57:43.269Z,10.85
2018-11-05T06:00:47.036Z,10.86
2018-11-05T06:03:50.946Z,10.86
2018-11-05T06:06:55.469Z,10.86
2018-11-05T06:09:59.071Z,10.87
2018-11-05T06:13:02.506Z,10.88
2018-11-05T06:16:06.082Z,10.85
2018-11-05T06:19:09.570Z,10.81
2018-11-05T06:22:13.032Z,10.82
2018-11-05T06:25:17.056Z,10.81
2018-11-05T06:28:20.589Z,10.80
2018-11-05T06:31:24.193Z,10.71
2018-11-05T06:34:27.677Z,10.68
2018-11-05T06:37:31.216Z,10.67
2018-11-05T06:40:34.700Z,10.58
2018-11-05T06:43:38.165Z,10.55
2018-11-05T06:46:41.751Z,10.57
2018-11-05T06:49:45.307Z,10.56
2018-11-05T06:52:48.837Z,10.60
2018-11-05T06:55:52.272Z,10.61
2018-11-05T06:58:55.856Z,10.61
2018-11-05T07:01:59.393Z,10.60
2018-11-05T07:05:02.879Z,10.57
2018-11-05T07:08:06.427Z,10.61
2018-11-05T07:11:10.082Z,10.62
2018-11-05T07:14:13.536Z,10.65
2018-11-05T07:17:17.168Z,10.69
2018-11-05T07:20:21.748Z,10.66
2018-11-05T07:23:25.286Z,10.68
2018-11-05T07:26:29.132Z,10.72
2018-11-05T07:29:32.524Z,10.78
2018-11-05T07:32:36.104Z,10.82
2018-11-05T07:35:39.924Z,10.89
2018-11-05T07:38:43.500Z,10.96
2018-11-05T07:41:46.995Z,11.01
2018-11-05T07:44:50.468Z,11.07
2018-11-05T07:47:53.980Z,11.13
2018-11-05T07:50:57.657Z,11.18
2018-11-05T07:54:01.208Z,11.23
2018-11-05T07:57:04.723Z,11.25
2018-11-05T08:00:15.698Z,11.28
2018-11-05T08:03:19.161Z,11.17
2018-11-05T08:06:22.664Z,11.19
2018-11-05T08:09:26.159Z,11.07
2018-11-05T08:12:29.609Z,11.00
2018-11-05T08:15:33.076Z,11.14
2018-11-05T08:18:36.609Z,11.25
2018-11-05T08:21:40.079Z,11.23
2018-11-05T08:24:43.634Z,11.14
2018-11-05T08:27:47.099Z,11.14
2018-11-05T08:30:50.614Z,11.13
2018-11-05T08:33:55.230Z,11.13
2018-11-05T08:36:58.733Z,11.12
2018-11-05T08:40:02.308Z,11.13
2018-11-05T08:43:06.183Z,11.14
2018-11-05T08:46:09.662Z,11.13
2018-11-05T08:49:13.140Z,11.19
2018-11-05T08:52:16.679Z,11.23
2018-11-05T08:55:21.332Z,11.27
2018-11-05T08:58:24.799Z,11.30
2018-11-05T09:01:32.186Z,11.36
2018-11-05T09:04:35.715Z,11.42
2018-11-05T09:07:39.230Z,11.44
2018-11-05T09:10:43.077Z,11.44
2018-11-05T09:13:46.162Z,11.52
2018-11-05T09:16:49.702Z,11.56
2018-11-05T09:19:53.140Z,11.62
2018-11-05T09:22:57.622Z,11.61
2018-11-05T09:26:01.110Z,11.56
2018-11-05T09:29:04.611Z,11.53
2018-11-05T09:32:08.137Z,11.49
2018-11-05T09:35:11.641Z,11.64
2018-11-05T09:38:15.134Z,11.71
2018-11-05T09:41:18.633Z,11.62
2018-11-05T09:44:22.131Z,11.63
2018-11-05T09:47:25.585Z,11.72
2018-11-05T09:50:29.040Z,11.89
2018-11-05T09:53:32.776Z,11.97
2018-11-05T09:56:36.247Z,11.98
2018-11-05T09:59:39.730Z,11.97
2018-11-05T10:02:48.739Z,12.04
2018-11-05T10:05:52.317Z,12.03
2018-11-05T10:08:55.799Z,12.09
2018-11-05T10:11:59.247Z,12.10
2018-11-05T10:15:02.656Z,12.12
2018-11-05T10:18:06.788Z,12.17
2018-11-05T10:21:10.174Z,12.21
2018-11-05T10:24:13.709Z,12.34
2018-11-05T10:27:17.163Z,12.41
2018-11-05T10:30:23.964Z,12.49
2018-11-05T10:33:27.401Z,12.63
2018-11-05T10:36:30.923Z,12.58
2018-11-05T10:39:34.386Z,12.66
2018-11-05T10:42:37.893Z,12.71
2018-11-05T10:45:41.302Z,12.76
2018-11-05T10:48:44.768Z,12.79
2018-11-05T10:51:48.201Z,12.81
2018-11-05T10:54:51.745Z,12.91
2018-11-05T10:57:55.273Z,12.93
2018-11-05T11:01:03.969Z,12.81
2018-11-05T11:04:13.175Z,12.82
2018-11-05T11:07:16.874Z,12.88
2018-11-05T11:10:20.399Z,12.83
2018-11-05T11:13:24.030Z,12.68
2018-11-05T11:16:27.588Z,12.65
2018-11-05T11:19:31.129Z,12.68
2018-11-05T11:22:34.698Z,12.72
2018-11-05T11:25:38.259Z,12.81
2018-11-05T11:28:41.809Z,12.88
2018-11-05T11:31:45.340Z,12.85
2018-11-05T11:34:48.899Z,12.84
2018-11-05T11:37:52.445Z,12.93
2018-11-05T11:40:55.976Z,13.00
2018-11-05T11:43:59.532Z,13.03
2018-11-05T11:47:03.017Z,12.98
2018-11-05T11:50:08.556Z,13.00
2018-11-05T11:53:12.076Z,13.28
2018-11-05T11:56:15.607Z,13.61
2018-11-05T11:59:19.180Z,13.53
2018-11-05T12:02:22.779Z,13.53
2018-11-05T12:05:26.478Z,13.33
2018-11-05T12:08:29.748Z,13.20
2018-11-05T12:11:33.295Z,13.32
2018-11-05T12:14:36.905Z,13.43
2018-11-05T12:17:41.184Z,13.50
2018-11-05T12:20:45.737Z,13.60
2018-11-05T12:23:49.230Z,13.67
2018-11-05T12:26:52.718Z,13.65
2018-11-05T12:29:56.216Z,13.69
2018-11-05T12:32:59.767Z,13.69
2018-11-05T12:36:05.741Z,13.76
2018-11-05T12:39:10.441Z,13.85
2018-11-05T12:42:14.976Z,13.91
2018-11-05T12:45:18.397Z,13.79
2018-11-05T12:48:21.869Z,13.83
2018-11-05T12:51:25.708Z,13.88
2018-11-05T12:54:29.277Z,13.94
2018-11-05T12:57:32.747Z,13.94
2018-11-05T13:00:36.619Z,14.01
2018-11-05T13:03:40.032Z,14.06
2018-11-05T13:06:43.644Z,14.05
2018-11-05T13:09:47.169Z,14.17
2018-11-05T13:12:50.780Z,14.18
2018-11-05T13:15:54.277Z,14.14
2018-11-05T13:18:57.808Z,14.02
2018-11-05T13:22:01.300Z,14.14
2018-11-05T13:25:04.792Z,14.25
2018-11-05T13:28:08.436Z,14.17
2018-11-05T13:31:11.916Z,14.12
2018-11-05T13:34:15.337Z,14.08
2018-11-05T13:37:19.019Z,14.00
2018-11-05T13:40:23.394Z,14.09
2018-11-05T13:43:27.912Z,14.11
2018-11-05T13:46:31.888Z,14.23
2018-11-05T13:49:34.919Z,14.38
2018-11-05T13:52:38.718Z,14.47
2018-11-05T13:55:42.180Z,14.28
2018-11-05T13:58:45.748Z,14.23
2018-11-05T14:01:50.294Z,14.28
2018-11-05T14:04:53.752Z,14.40
2018-11-05T14:07:58.241Z,14.31
2018-11-05T14:11:01.993Z,14.44
2018-11-05T14:14:05.765Z,14.42
2018-11-05T14:17:09.307Z,14.38
2018-11-05T14:20:13.766Z,14.46
2018-11-05T14:23:17.293Z,14.53
2018-11-05T14:26:21.794Z,14.61
2018-11-05T14:29:26.011Z,14.64
2018-11-05T14:32:28.998Z,14.64
2018-11-05T14:35:32.702Z,14.58
2018-11-05T14:38:36.341Z,14.52
2018-11-05T14:41:39.745Z,14.47
2018-11-05T14:44:43.315Z,14.44
2018-11-05T14:47:47.151Z,14.35
2018-11-05T14:50:50.797Z,14.32
2018-11-05T14:53:54.220Z,14.39
2018-11-05T14:56:57.641Z,14.60
2018-11-05T15:00:01.183Z,14.67
2018-11-05T15:03:05.034Z,14.74
2018-11-05T15:06:08.592Z,14.72
2018-11-05T15:09:13.327Z,14.60
2018-11-05T15:12:16.804Z,14.31
2018-11-05T15:15:20.888Z,14.14
2018-11-05T15:18:24.601Z,14.07
2018-11-05T15:21:27.973Z,14.04
2018-11-05T15:24:31.538Z,14.02
2018-11-05T15:27:35.842Z,14.15
2018-11-05T15:30:40.190Z,14.30
2018-11-05T15:33:43.751Z,14.34
2018-11-05T15:36:47.142Z,14.39
2018-11-05T15:39:50.541Z,14.42
2018-11-05T15:42:54.028Z,14.39
2018-11-05T15:45:58.466Z,14.35
2018-11-05T15:49:01.952Z,14.31
2018-11-05T15:52:05.615Z,14.22
2018-11-05T15:55:09.077Z,14.16
2018-11-05T15:58:12.488Z,14.02
2018-11-05T16:01:15.895Z,13.97
2018-11-05T16:04:19.431Z,13.85
2018-11-05T16:07:22.880Z,13.58
2018-11-05T16:10:26.319Z,13.40
2018-11-05T16:13:31.293Z,13.16
2018-11-05T16:16:35.042Z,13.04
2018-11-05T16:19:38.518Z,12.95
2018-11-05T16:22:42.268Z,12.92
2018-11-05T16:25:46.239Z,12.89
2018-11-05T16:28:50.058Z,12.79
2018-11-05T16:31:54.007Z,12.72
2018-11-05T16:34:59.834Z,12.63
2018-11-05T16:38:03.591Z,12.52
2018-11-05T16:41:08.563Z,12.40
2018-11-05T16:44:12.428Z,12.29
2018-11-05T16:47:17.575Z,12.11
2018-11-05T16:50:24.727Z,12.02
2018-11-05T16:53:28.428Z,12.00
2018-11-05T16:56:32.025Z,11.95
2018-11-05T16:59:39.179Z,11.84
2018-11-05T17:02:43.848Z,11.82
2018-11-05T17:05:48.308Z,11.86
2018-11-05T17:08:51.813Z,11.76
2018-11-05T17:11:55.311Z,11.82
2018-11-05T17:14:58.835Z,11.73
2018-11-05T17:18:02.430Z,11.85
2018-11-05T17:21:06.422Z,11.77
2018-11-05T17:24:10.014Z,11.65
2018-11-05T17:27:13.600Z,11.57
2018-11-05T17:30:19.679Z,11.54
2018-11-05T17:33:24.308Z,11.50
2018-11-05T17:36:27.891Z,11.44
2018-11-05T17:39:31.804Z,11.30
2018-11-05T17:42:36.193Z,11.29
2018-11-05T17:45:40.143Z,11.36
2018-11-05T17:48:44.707Z,11.36
2018-11-05T17:51:48.381Z,11.30
2018-11-05T17:54:51.987Z,11.26
2018-11-05T17:57:55.551Z,11.18
2018-11-05T18:00:59.086Z,11.24
2018-11-05T18:04:02.747Z,10.87
2018-11-05T18:07:06.576Z,10.79
2018-11-05T18:10:16.176Z,10.70
2018-11-05T18:13:20.409Z,10.77
2018-11-05T18:16:25.806Z,10.82
2018-11-05T18:19:29.710Z,10.67
2018-11-05T18:22:34.850Z,10.44
2018-11-05T18:25:38.970Z,10.21
2018-11-05T18:28:42.941Z,10.25
2018-11-05T18:31:46.937Z,10.20
2018-11-05T18:34:51.925Z,10.18
2018-11-05T18:37:55.527Z,10.21
2018-11-05T18:40:59.020Z,10.38
2018-11-05T18:44:02.575Z,10.45
2018-11-05T18:47:06.185Z,10.52
2018-11-05T18:50:11.746Z,10.22
2018-11-05T18:53:15.254Z,10.21
2018-11-05T18:56:18.759Z,10.29
2018-11-05T18:59:22.424Z,10.14
2018-11-05T19:02:31.337Z,10.17
2018-11-05T19:05:34.898Z,10.09
2018-11-05T19:08:38.433Z,10.18
2018-11-05T19:11:41.880Z,10.23
2018-11-05T19:14:45.407Z,10.24
2018-11-05T19:17:49.716Z,10.08
2018-11-05T19:20:53.198Z,9.95
2018-11-05T19:23:56.927Z,9.94
2018-11-05T19:27:00.217Z,9.96
2018-11-05T19:30:04.406Z,9.91
2018-11-05T19:33:08.057Z,9.93
2018-11-05T19:36:11.730Z,10.05
2018-11-05T19:39:15.269Z,10.05
2018-11-05T19:42:19.120Z,10.03
2018-11-05T19:45:23.530Z,9.96
2018-11-05T19:48:27.002Z,9.90
2018-11-05T19:51:30.499Z,10.08
2018-11-05T19:54:34.061Z,10.04
2018-11-05T19:57:38.311Z,9.94
2018-11-05T20:00:41.819Z,9.82
2018-11-05T20:03:45.290Z,9.77
2018-11-05T20:06:48.903Z,9.71
2018-11-05T20:09:52.466Z,9.60
2018-11-05T20:12:55.928Z,9.62
2018-11-05T20:15:59.435Z,9.66
2018-11-05T20:19:02.999Z,9.67
2018-11-05T20:22:06.521Z,9.70
2018-11-05T20:25:10.481Z,9.65
2018-11-05T20:28:14.009Z,9.62
2018-11-05T20:31:17.738Z,9.75
2018-11-05T20:34:21.105Z,9.72
2018-11-05T20:37:24.541Z,9.50
2018-11-05T20:40:28.090Z,9.58
2018-11-05T20:43:31.549Z,9.61
2018-11-05T20:46:35.134Z,9.76
2018-11-05T20:49:38.612Z,9.78
2018-11-05T20:52:42.161Z,9.78
2018-11-05T20:55:45.683Z,9.85
2018-11-05T20:58:49.328Z,9.95
2018-11-05T21:01:52.832Z,9.91
2018-11-05T21:04:56.466Z,9.88
2018-11-05T21:08:00.154Z,9.80
2018-11-05T21:11:03.656Z,9.72
2018-11-05T21:14:08.235Z,9.77
2018-11-05T21:17:13.482Z,9.82
2018-11-05T21:20:17.038Z,9.68
2018-11-05T21:23:20.621Z,9.63
2018-11-05T21:26:24.361Z,9.56
2018-11-05T21:29:27.830Z,9.64
2018-11-05T21:32:31.391Z,9.69
2018-11-05T21:35:34.892Z,9.75
2018-11-05T21:38:38.341Z,9.79
2018-11-05T21:41:41.825Z,9.84
2018-11-05T21:44:45.332Z,9.86
2018-11-05T21:47:48.867Z,9.86
2018-11-05T21:50:52.336Z,9.84
2018-11-05T21:53:56.031Z,9.83
2018-11-05T21:56:59.482Z,9.83
2018-11-05T22:00:03.291Z,9.81
2018-11-05T22:03:10.925Z,9.73
2018-11-05T22:06:15.474Z,9.61
2018-11-05T22:09:19.061Z,9.55
2018-11-05T22:12:22.496Z,9.55
2018-11-05T22:15:30.371Z,9.48
2018-11-05T22:18:33.817Z,9.41
2018-11-05T22:21:37.227Z,9.36
2018-11-05T22:24:40.778Z,9.37
2018-11-05T22:27:44.745Z,9.30
2018-11-05T22:30:49.283Z,9.24
2018-11-05T22:33:52.808Z,9.19
2018-11-05T22:36:56.241Z,9.10
2018-11-05T22:39:59.922Z,9.06
2018-11-05T22:43:03.496Z,8.99
2018-11-05T22:46:07.262Z,9.01
2018-11-05T22:49:10.763Z,9.02
2018-11-05T22:52:14.464Z,9.04
2018-11-05T22:55:17.996Z,9.01
2018-11-05T22:58:21.635Z,9.00
2018-11-05T23:01:30.609Z,9.05
2018-11-05T23:04:34.143Z,8.99
2018-11-05T23:07:37.719Z,8.93
2018-11-05T23:10:41.395Z,8.81
2018-11-05T23:13:44.978Z,8.78
2018-11-05T23:16:48.570Z,8.71
2018-11-05T23:19:52.095Z,8.72
2018-11-05T23:22:55.641Z,8.71
2018-11-05T23:25:59.160Z,8.63
2018-11-05T23:29:03.098Z,8.58
2018-11-05T23:32:06.756Z,8.59
2018-11-05T23:35:10.787Z,8.55
2018-11-05T23:38:14.344Z,8.53
2018-11-05T23:41:18.202Z,8.58
2018-11-05T23:44:21.959Z,8.64
2018-11-05T23:47:29.238Z,8.66
2018-11-05T23:50:32.784Z,8.66
2018-11-05T23:53:36.257Z,8.62
2018-11-05T23:56:39.826Z,8.59
2018-11-05T23:59:43.376Z,8.49
